Scurry, Texas
Current Conditions -  °F | °C
As of 8:53 AM on Friday 24 Oct 2014 (Local Time) from KTRL Reporting Station
Broken Clouds Broken Clouds  
Wind Chill: 60°   Ceiling: 6500
Heat Index: 60°   Visibility: 10mi
Dew Point: 55°   Wind: 6mph
Humidity: 83%   Direction: 170°S
Pressure: 30.18"   Gusts: NA
Location:  32.52°N, 96.38°W
Report Text: KTRL 241353Z AUTO 17005KT 10SM BKN065 16/13 A3018 RMK AO2 SLP216 T01560128
Loading
Personal Weather Stations






























Interactive Weather Map New forecast layout! Learn more

10-Day Weather Forecast

Advertisements
Track Severe Weather on mobile